sensor_id;sensor_type;location;lat;lon;timestamp;P1;durP1;ratioP1;P2;durP2;ratioP2
35366;SDS011;21465;52.278;20.962;2023-02-01T00:01:40;4.75;;;4.43;;
35366;SDS011;21465;52.278;20.962;2023-02-01T00:04:06;4.10;;;3.80;;
35366;SDS011;21465;52.278;20.962;2023-02-01T00:06:32;4.18;;;3.88;;
35366;SDS011;21465;52.278;20.962;2023-02-01T00:08:58;3.78;;;3.47;;
35366;SDS011;21465;52.278;20.962;2023-02-01T00:11:24;3.72;;;3.42;;
35366;SDS011;21465;52.278;20.962;2023-02-01T00:13:50;3.88;;;3.58;;
35366;SDS011;21465;52.278;20.962;2023-02-01T00:16:17;3.45;;;3.25;;
35366;SDS011;21465;52.278;20.962;2023-02-01T00:18:45;3.47;;;3.17;;
35366;SDS011;21465;52.278;20.962;2023-02-01T00:21:12;3.53;;;3.22;;
35366;SDS011;21465;52.278;20.962;2023-02-01T00:23:39;3.40;;;3.15;;
35366;SDS011;21465;52.278;20.962;2023-02-01T00:26:06;2.97;;;2.78;;
35366;SDS011;21465;52.278;20.962;2023-02-01T00:28:34;3.07;;;2.87;;
35366;SDS011;21465;52.278;20.962;2023-02-01T00:31:01;2.85;;;2.42;;
35366;SDS011;21465;52.278;20.962;2023-02-01T00:33:28;3.92;;;2.60;;
35366;SDS011;21465;52.278;20.962;2023-02-01T00:35:58;2.53;;;2.33;;
35366;SDS011;21465;52.278;20.962;2023-02-01T00:38:26;2.55;;;2.35;;
35366;SDS011;21465;52.278;20.962;2023-02-01T00:40:53;2.08;;;1.98;;
35366;SDS011;21465;52.278;20.962;2023-02-01T00:43:19;2.15;;;2.00;;
35366;SDS011;21465;52.278;20.962;2023-02-01T00:45:45;4.38;;;2.45;;
35366;SDS011;21465;52.278;20.962;2023-02-01T00:48:11;1.92;;;1.45;;
35366;SDS011;21465;52.278;20.962;2023-02-01T00:50:41;1.67;;;1.58;;
35366;SDS011;21465;52.278;20.962;2023-02-01T00:53:10;1.70;;;1.60;;
35366;SDS011;21465;52.278;20.962;2023-02-01T00:55:36;2.20;;;1.40;;
35366;SDS011;21465;52.278;20.962;2023-02-01T00:58:02;1.60;;;1.50;;
35366;SDS011;21465;52.278;20.962;2023-02-01T01:00:28;1.40;;;1.30;;
35366;SDS011;21465;52.278;20.962;2023-02-01T01:02:54;1.33;;;1.23;;
35366;SDS011;21465;52.278;20.962;2023-02-01T01:05:21;1.58;;;1.17;;
35366;SDS011;21465;52.278;20.962;2023-02-01T01:07:47;1.25;;;1.15;;
35366;SDS011;21465;52.278;20.962;2023-02-01T01:10:12;1.33;;;1.20;;
35366;SDS011;21465;52.278;20.962;2023-02-01T01:12:38;1.85;;;1.10;;
35366;SDS011;21465;52.278;20.962;2023-02-01T01:15:04;2.88;;;1.67;;
35366;SDS011;21465;52.278;20.962;2023-02-01T01:17:31;1.10;;;0.68;;
35366;SDS011;21465;52.278;20.962;2023-02-01T01:19:57;2.17;;;0.88;;
35366;SDS011;21465;52.278;20.962;2023-02-01T01:22:23;1.85;;;1.08;;
35366;SDS011;21465;52.278;20.962;2023-02-01T01:24:48;2.38;;;1.02;;
35366;SDS011;21465;52.278;20.962;2023-02-01T01:27:14;0.98;;;0.80;;
35366;SDS011;21465;52.278;20.962;2023-02-01T01:29:40;1.38;;;0.80;;
35366;SDS011;21465;52.278;20.962;2023-02-01T01:32:09;2.35;;;0.73;;
35366;SDS011;21465;52.278;20.962;2023-02-01T01:34:34;2.45;;;0.88;;
35366;SDS011;21465;52.278;20.962;2023-02-01T01:37:03;2.08;;;0.70;;
35366;SDS011;21465;52.278;20.962;2023-02-01T01:39:29;2.28;;;0.70;;
35366;SDS011;21465;52.278;20.962;2023-02-01T01:41:55;2.00;;;0.70;;
35366;SDS011;21465;52.278;20.962;2023-02-01T01:47:20;1.48;;;0.55;;
35366;SDS011;21465;52.278;20.962;2023-02-01T01:49:45;1.35;;;0.80;;
35366;SDS011;21465;52.278;20.962;2023-02-01T01:52:11;2.25;;;0.90;;
35366;SDS011;21465;52.278;20.962;2023-02-01T01:54:39;2.67;;;1.88;;
35366;SDS011;21465;52.278;20.962;2023-02-01T01:57:08;2.77;;;0.97;;
35366;SDS011;21465;52.278;20.962;2023-02-01T01:59:36;1.02;;;0.70;;
35366;SDS011;21465;52.278;20.962;2023-02-01T02:02:03;2.00;;;0.93;;
35366;SDS011;21465;52.278;20.962;2023-02-01T02:04:29;3.35;;;1.20;;
35366;SDS011;21465;52.278;20.962;2023-02-01T02:06:59;2.70;;;0.90;;
35366;SDS011;21465;52.278;20.962;2023-02-01T02:09:26;1.25;;;0.93;;
35366;SDS011;21465;52.278;20.962;2023-02-01T02:11:52;1.83;;;1.05;;
35366;SDS011;21465;52.278;20.962;2023-02-01T02:14:18;3.78;;;1.08;;
35366;SDS011;21465;52.278;20.962;2023-02-01T02:36:08;3.92;;;1.80;;
35366;SDS011;21465;52.278;20.962;2023-02-01T02:38:44;2.58;;;1.10;;
35366;SDS011;21465;52.278;20.962;2023-02-01T02:41:18;4.30;;;1.42;;
35366;SDS011;21465;52.278;20.962;2023-02-01T02:44:09;2.40;;;1.17;;
35366;SDS011;21465;52.278;20.962;2023-02-01T02:46:58;2.90;;;1.60;;
35366;SDS011;21465;52.278;20.962;2023-02-01T02:50:03;2.40;;;1.20;;
35366;SDS011;21465;52.278;20.962;2023-02-01T02:52:51;2.30;;;1.23;;
35366;SDS011;21465;52.278;20.962;2023-02-01T02:55:40;4.47;;;1.30;;
35366;SDS011;21465;52.278;20.962;2023-02-01T02:58:06;3.40;;;1.40;;
35366;SDS011;21465;52.278;20.962;2023-02-01T03:00:51;3.28;;;1.55;;
35366;SDS011;21465;52.278;20.962;2023-02-01T03:03:37;3.15;;;1.10;;
35366;SDS011;21465;52.278;20.962;2023-02-01T03:06:24;2.50;;;1.17;;
35366;SDS011;21465;52.278;20.962;2023-02-01T03:08:51;4.40;;;1.90;;
35366;SDS011;21465;52.278;20.962;2023-02-01T03:11:22;3.75;;;1.45;;
35366;SDS011;21465;52.278;20.962;2023-02-01T03:14:09;3.10;;;1.48;;
35366;SDS011;21465;52.278;20.962;2023-02-01T03:16:39;3.78;;;1.38;;
35366;SDS011;21465;52.278;20.962;2023-02-01T03:21:50;2.95;;;1.15;;
35366;SDS011;21465;52.278;20.962;2023-02-01T03:24:26;4.25;;;1.80;;
35366;SDS011;21465;52.278;20.962;2023-02-01T03:27:02;3.75;;;1.55;;
35366;SDS011;21465;52.278;20.962;2023-02-01T03:29:34;3.65;;;1.20;;
35366;SDS011;21465;52.278;20.962;2023-02-01T03:32:13;2.30;;;1.30;;
35366;SDS011;21465;52.278;20.962;2023-02-01T03:34:39;5.63;;;1.80;;
35366;SDS011;21465;52.278;20.962;2023-02-01T03:37:10;3.90;;;1.40;;
35366;SDS011;21465;52.278;20.962;2023-02-01T03:39:39;4.97;;;1.60;;
35366;SDS011;21465;52.278;20.962;2023-02-01T03:42:14;3.85;;;2.17;;
35366;SDS011;21465;52.278;20.962;2023-02-01T03:44:48;5.50;;;1.75;;
35366;SDS011;21465;52.278;20.962;2023-02-01T03:47:23;3.45;;;1.23;;
35366;SDS011;21465;52.278;20.962;2023-02-01T03:49:50;4.60;;;1.65;;
35366;SDS011;21465;52.278;20.962;2023-02-01T03:52:30;5.07;;;2.00;;
35366;SDS011;21465;52.278;20.962;2023-02-01T03:54:59;3.58;;;1.40;;
35366;SDS011;21465;52.278;20.962;2023-02-01T03:57:26;5.00;;;1.48;;
35366;SDS011;21465;52.278;20.962;2023-02-01T04:00:03;5.00;;;1.60;;
35366;SDS011;21465;52.278;20.962;2023-02-01T04:02:31;5.68;;;1.60;;
35366;SDS011;21465;52.278;20.962;2023-02-01T04:04:57;5.05;;;2.97;;
35366;SDS011;21465;52.278;20.962;2023-02-01T04:07:23;4.95;;;1.67;;
35366;SDS011;21465;52.278;20.962;2023-02-01T04:09:48;4.63;;;2.13;;
35366;SDS011;21465;52.278;20.962;2023-02-01T04:12:14;6.07;;;2.08;;
35366;SDS011;21465;52.278;20.962;2023-02-01T04:14:40;4.80;;;1.55;;
35366;SDS011;21465;52.278;20.962;2023-02-01T04:17:09;3.55;;;1.58;;
35366;SDS011;21465;52.278;20.962;2023-02-01T04:19:35;4.88;;;1.73;;
35366;SDS011;21465;52.278;20.962;2023-02-01T04:22:00;4.07;;;1.83;;
35366;SDS011;21465;52.278;20.962;2023-02-01T04:24:26;3.13;;;1.60;;
35366;SDS011;21465;52.278;20.962;2023-02-01T04:26:52;8.82;;;3.33;;
35366;SDS011;21465;52.278;20.962;2023-02-01T04:29:18;5.47;;;1.75;;
35366;SDS011;21465;52.278;20.962;2023-02-01T04:31:43;4.38;;;1.67;;
35366;SDS011;21465;52.278;20.962;2023-02-01T04:34:09;7.15;;;2.15;;
35366;SDS011;21465;52.278;20.962;2023-02-01T04:36:35;4.50;;;1.67;;
35366;SDS011;21465;52.278;20.962;2023-02-01T04:39:01;3.58;;;1.67;;
35366;SDS011;21465;52.278;20.962;2023-02-01T04:41:27;3.53;;;1.73;;
35366;SDS011;21465;52.278;20.962;2023-02-01T04:43:53;3.50;;;1.33;;
35366;SDS011;21465;52.278;20.962;2023-02-01T04:46:19;3.58;;;1.35;;
35366;SDS011;21465;52.278;20.962;2023-02-01T04:48:44;2.97;;;1.60;;
35366;SDS011;21465;52.278;20.962;2023-02-01T04:51:10;4.30;;;1.85;;
35366;SDS011;21465;52.278;20.962;2023-02-01T04:53:36;5.03;;;1.65;;
35366;SDS011;21465;52.278;20.962;2023-02-01T04:56:02;6.93;;;1.73;;
35366;SDS011;21465;52.278;20.962;2023-02-01T04:58:29;5.38;;;1.70;;
35366;SDS011;21465;52.278;20.962;2023-02-01T05:00:55;7.00;;;2.08;;
35366;SDS011;21465;52.278;20.962;2023-02-01T05:03:20;6.50;;;1.55;;
35366;SDS011;21465;52.278;20.962;2023-02-01T05:05:47;4.72;;;1.60;;
35366;SDS011;21465;52.278;20.962;2023-02-01T05:08:14;3.92;;;1.70;;
35366;SDS011;21465;52.278;20.962;2023-02-01T05:10:40;3.35;;;1.38;;
35366;SDS011;21465;52.278;20.962;2023-02-01T05:13:07;4.70;;;1.73;;
35366;SDS011;21465;52.278;20.962;2023-02-01T05:15:52;6.03;;;2.00;;
35366;SDS011;21465;52.278;20.962;2023-02-01T05:18:18;3.75;;;1.52;;
35366;SDS011;21465;52.278;20.962;2023-02-01T05:20:44;7.18;;;2.03;;
35366;SDS011;21465;52.278;20.962;2023-02-01T05:23:09;3.22;;;1.45;;
35366;SDS011;21465;52.278;20.962;2023-02-01T05:25:35;5.55;;;1.77;;
35366;SDS011;21465;52.278;20.962;2023-02-01T05:28:01;4.85;;;1.58;;
35366;SDS011;21465;52.278;20.962;2023-02-01T05:30:28;7.25;;;2.22;;
35366;SDS011;21465;52.278;20.962;2023-02-01T05:32:54;5.68;;;1.80;;
35366;SDS011;21465;52.278;20.962;2023-02-01T05:35:19;5.90;;;2.33;;
35366;SDS011;21465;52.278;20.962;2023-02-01T05:37:45;4.10;;;1.67;;
35366;SDS011;21465;52.278;20.962;2023-02-01T05:40:11;4.30;;;1.50;;
35366;SDS011;21465;52.278;20.962;2023-02-01T05:42:37;3.65;;;1.60;;
35366;SDS011;21465;52.278;20.962;2023-02-01T05:45:04;5.38;;;1.80;;
35366;SDS011;21465;52.278;20.962;2023-02-01T05:47:32;3.88;;;1.83;;
35366;SDS011;21465;52.278;20.962;2023-02-01T05:49:58;3.33;;;2.10;;
35366;SDS011;21465;52.278;20.962;2023-02-01T05:52:24;4.18;;;1.50;;
35366;SDS011;21465;52.278;20.962;2023-02-01T05:54:50;3.80;;;1.75;;
35366;SDS011;21465;52.278;20.962;2023-02-01T05:57:16;5.15;;;2.15;;
35366;SDS011;21465;52.278;20.962;2023-02-01T05:59:42;3.28;;;1.63;;
35366;SDS011;21465;52.278;20.962;2023-02-01T06:02:10;5.13;;;1.70;;
35366;SDS011;21465;52.278;20.962;2023-02-01T06:04:37;3.83;;;1.20;;
35366;SDS011;21465;52.278;20.962;2023-02-01T06:07:03;6.57;;;2.30;;
35366;SDS011;21465;52.278;20.962;2023-02-01T06:09:29;3.80;;;1.70;;
35366;SDS011;21465;52.278;20.962;2023-02-01T06:11:55;5.80;;;2.08;;
35366;SDS011;21465;52.278;20.962;2023-02-01T06:14:20;5.10;;;1.75;;
35366;SDS011;21465;52.278;20.962;2023-02-01T06:16:46;4.93;;;1.75;;
35366;SDS011;21465;52.278;20.962;2023-02-01T06:19:12;4.47;;;1.40;;
35366;SDS011;21465;52.278;20.962;2023-02-01T06:21:38;4.38;;;2.03;;
35366;SDS011;21465;52.278;20.962;2023-02-01T06:24:06;5.40;;;1.80;;
35366;SDS011;21465;52.278;20.962;2023-02-01T06:26:32;3.95;;;1.70;;
35366;SDS011;21465;52.278;20.962;2023-02-01T06:28:58;3.78;;;1.50;;
35366;SDS011;21465;52.278;20.962;2023-02-01T06:31:24;7.47;;;1.67;;
35366;SDS011;21465;52.278;20.962;2023-02-01T06:33:51;3.58;;;1.85;;
35366;SDS011;21465;52.278;20.962;2023-02-01T06:36:16;4.40;;;1.90;;
35366;SDS011;21465;52.278;20.962;2023-02-01T06:38:44;3.95;;;1.55;;
35366;SDS011;21465;52.278;20.962;2023-02-01T06:41:10;5.45;;;1.90;;
35366;SDS011;21465;52.278;20.962;2023-02-01T06:43:36;3.83;;;1.85;;
35366;SDS011;21465;52.278;20.962;2023-02-01T06:46:06;4.00;;;1.60;;
35366;SDS011;21465;52.278;20.962;2023-02-01T06:48:33;5.18;;;1.73;;
35366;SDS011;21465;52.278;20.962;2023-02-01T06:50:59;3.33;;;1.45;;
35366;SDS011;21465;52.278;20.962;2023-02-01T06:53:25;5.65;;;1.90;;
35366;SDS011;21465;52.278;20.962;2023-02-01T06:55:51;6.07;;;2.30;;
35366;SDS011;21465;52.278;20.962;2023-02-01T06:58:21;4.75;;;1.98;;
35366;SDS011;21465;52.278;20.962;2023-02-01T07:00:47;4.18;;;1.80;;
35366;SDS011;21465;52.278;20.962;2023-02-01T07:03:14;4.35;;;1.63;;
35366;SDS011;21465;52.278;20.962;2023-02-01T07:05:39;4.00;;;1.73;;
35366;SDS011;21465;52.278;20.962;2023-02-01T07:08:05;7.65;;;2.03;;
35366;SDS011;21465;52.278;20.962;2023-02-01T07:10:31;5.78;;;1.70;;
35366;SDS011;21465;52.278;20.962;2023-02-01T07:12:57;3.25;;;1.60;;
35366;SDS011;21465;52.278;20.962;2023-02-01T07:15:23;2.42;;;1.40;;
35366;SDS011;21465;52.278;20.962;2023-02-01T07:17:49;7.50;;;2.05;;
35366;SDS011;21465;52.278;20.962;2023-02-01T07:20:15;6.03;;;2.22;;
35366;SDS011;21465;52.278;20.962;2023-02-01T07:22:43;5.35;;;2.35;;
35366;SDS011;21465;52.278;20.962;2023-02-01T07:25:08;5.40;;;1.73;;
35366;SDS011;21465;52.278;20.962;2023-02-01T07:27:34;4.65;;;1.95;;
35366;SDS011;21465;52.278;20.962;2023-02-01T07:30:00;2.45;;;1.35;;
35366;SDS011;21465;52.278;20.962;2023-02-01T07:32:28;7.07;;;2.75;;
35366;SDS011;21465;52.278;20.962;2023-02-01T07:34:54;6.22;;;2.00;;
35366;SDS011;21465;52.278;20.962;2023-02-01T07:37:23;3.28;;;1.60;;
35366;SDS011;21465;52.278;20.962;2023-02-01T07:39:51;8.90;;;1.90;;
35366;SDS011;21465;52.278;20.962;2023-02-01T07:42:17;5.40;;;1.85;;
35366;SDS011;21465;52.278;20.962;2023-02-01T07:44:43;6.40;;;1.95;;
35366;SDS011;21465;52.278;20.962;2023-02-01T07:47:09;6.13;;;2.33;;
35366;SDS011;21465;52.278;20.962;2023-02-01T07:49:34;7.25;;;2.33;;
35366;SDS011;21465;52.278;20.962;2023-02-01T07:52:03;6.05;;;2.47;;
35366;SDS011;21465;52.278;20.962;2023-02-01T07:54:28;4.38;;;1.95;;
35366;SDS011;21465;52.278;20.962;2023-02-01T07:56:54;5.70;;;2.05;;
35366;SDS011;21465;52.278;20.962;2023-02-01T07:59:20;6.10;;;2.33;;
35366;SDS011;21465;52.278;20.962;2023-02-01T08:01:46;5.72;;;1.90;;
35366;SDS011;21465;52.278;20.962;2023-02-01T08:04:12;7.38;;;2.35;;
35366;SDS011;21465;52.278;20.962;2023-02-01T08:06:38;5.32;;;1.90;;
35366;SDS011;21465;52.278;20.962;2023-02-01T08:09:04;5.22;;;1.70;;
35366;SDS011;21465;52.278;20.962;2023-02-01T08:11:31;5.78;;;2.05;;
35366;SDS011;21465;52.278;20.962;2023-02-01T08:13:57;7.22;;;2.97;;
35366;SDS011;21465;52.278;20.962;2023-02-01T08:16:25;5.43;;;2.65;;
35366;SDS011;21465;52.278;20.962;2023-02-01T08:19:06;3.97;;;1.70;;
35366;SDS011;21465;52.278;20.962;2023-02-01T08:22:04;6.75;;;2.53;;
35366;SDS011;21465;52.278;20.962;2023-02-01T08:24:32;6.10;;;2.25;;
35366;SDS011;21465;52.278;20.962;2023-02-01T08:27:00;5.25;;;1.80;;
35366;SDS011;21465;52.278;20.962;2023-02-01T08:29:26;4.82;;;1.83;;
35366;SDS011;21465;52.278;20.962;2023-02-01T08:31:55;6.40;;;1.90;;
35366;SDS011;21465;52.278;20.962;2023-02-01T08:34:23;5.80;;;1.95;;
35366;SDS011;21465;52.278;20.962;2023-02-01T08:36:49;4.43;;;2.15;;
35366;SDS011;21465;52.278;20.962;2023-02-01T08:39:17;5.07;;;2.25;;
35366;SDS011;21465;52.278;20.962;2023-02-01T08:41:43;6.05;;;2.15;;
35366;SDS011;21465;52.278;20.962;2023-02-01T08:44:31;4.28;;;1.90;;
35366;SDS011;21465;52.278;20.962;2023-02-01T08:47:03;5.55;;;3.10;;
35366;SDS011;21465;52.278;20.962;2023-02-01T08:49:29;7.00;;;2.08;;
35366;SDS011;21465;52.278;20.962;2023-02-01T08:51:55;4.50;;;1.92;;
35366;SDS011;21465;52.278;20.962;2023-02-01T08:54:26;5.05;;;2.50;;
35366;SDS011;21465;52.278;20.962;2023-02-01T08:59:01;4.57;;;2.00;;
35366;SDS011;21465;52.278;20.962;2023-02-01T09:01:33;4.43;;;2.30;;
35366;SDS011;21465;52.278;20.962;2023-02-01T09:04:07;6.30;;;2.40;;
35366;SDS011;21465;52.278;20.962;2023-02-01T09:06:43;5.25;;;2.83;;
35366;SDS011;21465;52.278;20.962;2023-02-01T09:09:10;10.13;;;3.67;;
35366;SDS011;21465;52.278;20.962;2023-02-01T09:11:39;3.90;;;1.85;;
35366;SDS011;21465;52.278;20.962;2023-02-01T09:14:10;5.90;;;1.70;;
35366;SDS011;21465;52.278;20.962;2023-02-01T09:16:36;2.95;;;1.60;;
35366;SDS011;21465;52.278;20.962;2023-02-01T09:19:07;5.22;;;2.10;;
35366;SDS011;21465;52.278;20.962;2023-02-01T09:21:35;6.15;;;2.33;;
35366;SDS011;21465;52.278;20.962;2023-02-01T09:24:04;6.18;;;2.55;;
35366;SDS011;21465;52.278;20.962;2023-02-01T09:26:33;3.70;;;2.10;;
35366;SDS011;21465;52.278;20.962;2023-02-01T09:29:00;6.68;;;2.00;;
35366;SDS011;21465;52.278;20.962;2023-02-01T09:31:26;8.27;;;2.13;;
35366;SDS011;21465;52.278;20.962;2023-02-01T09:34:15;7.93;;;2.55;;
35366;SDS011;21465;52.278;20.962;2023-02-01T09:36:47;3.22;;;1.92;;
35366;SDS011;21465;52.278;20.962;2023-02-01T09:39:19;5.10;;;2.03;;
35366;SDS011;21465;52.278;20.962;2023-02-01T09:45:14;4.05;;;2.30;;
35366;SDS011;21465;52.278;20.962;2023-02-01T09:48:14;5.53;;;2.00;;
35366;SDS011;21465;52.278;20.962;2023-02-01T09:50:45;3.35;;;1.70;;
35366;SDS011;21465;52.278;20.962;2023-02-01T09:53:25;4.53;;;2.20;;
35366;SDS011;21465;52.278;20.962;2023-02-01T09:56:04;6.32;;;2.28;;
35366;SDS011;21465;52.278;20.962;2023-02-01T09:58:35;7.30;;;2.10;;
35366;SDS011;21465;52.278;20.962;2023-02-01T10:01:30;4.45;;;2.42;;
35366;SDS011;21465;52.278;20.962;2023-02-01T10:04:04;5.57;;;1.90;;
35366;SDS011;21465;52.278;20.962;2023-02-01T10:06:38;4.13;;;2.05;;
35366;SDS011;21465;52.278;20.962;2023-02-01T10:20:21;4.68;;;2.60;;
35366;SDS011;21465;52.278;20.962;2023-02-01T10:25:55;4.28;;;2.10;;
35366;SDS011;21465;52.278;20.962;2023-02-01T10:28:39;4.75;;;2.20;;
35366;SDS011;21465;52.278;20.962;2023-02-01T10:31:20;4.32;;;2.08;;
35366;SDS011;21465;52.278;20.962;2023-02-01T10:33:51;5.75;;;1.85;;
35366;SDS011;21465;52.278;20.962;2023-02-01T10:39:35;3.78;;;1.95;;
35366;SDS011;21465;52.278;20.962;2023-02-01T10:42:05;5.40;;;1.73;;
35366;SDS011;21465;52.278;20.962;2023-02-01T10:44:43;4.35;;;2.35;;
35366;SDS011;21465;52.278;20.962;2023-02-01T10:47:19;3.53;;;1.70;;
35366;SDS011;21465;52.278;20.962;2023-02-01T10:53:38;6.22;;;2.47;;
35366;SDS011;21465;52.278;20.962;2023-02-01T10:55:49;4.90;;;1.90;;
35366;SDS011;21465;52.278;20.962;2023-02-01T11:00:45;3.92;;;1.92;;
35366;SDS011;21465;52.278;20.962;2023-02-01T11:14:20;3.95;;;2.10;;
35366;SDS011;21465;52.278;20.962;2023-02-01T11:16:55;3.33;;;1.90;;
35366;SDS011;21465;52.278;20.962;2023-02-01T11:19:23;4.75;;;2.20;;
35366;SDS011;21465;52.278;20.962;2023-02-01T11:21:59;2.85;;;2.00;;
35366;SDS011;21465;52.278;20.962;2023-02-01T11:24:39;5.90;;;2.35;;
35366;SDS011;21465;52.278;20.962;2023-02-01T11:27:12;5.25;;;2.50;;
35366;SDS011;21465;52.278;20.962;2023-02-01T11:29:44;3.22;;;2.03;;
35366;SDS011;21465;52.278;20.962;2023-02-01T11:32:12;5.40;;;2.10;;
35366;SDS011;21465;52.278;20.962;2023-02-01T11:34:53;4.07;;;2.05;;
35366;SDS011;21465;52.278;20.962;2023-02-01T11:37:26;5.22;;;2.50;;
35366;SDS011;21465;52.278;20.962;2023-02-01T11:39:55;3.75;;;1.83;;
35366;SDS011;21465;52.278;20.962;2023-02-01T11:42:38;4.20;;;1.75;;
35366;SDS011;21465;52.278;20.962;2023-02-01T11:47:55;4.03;;;2.03;;
35366;SDS011;21465;52.278;20.962;2023-02-01T11:59:02;5.95;;;2.08;;
35366;SDS011;21465;52.278;20.962;2023-02-01T12:07:37;4.38;;;2.33;;
35366;SDS011;21465;52.278;20.962;2023-02-01T12:16:07;5.15;;;2.17;;
35366;SDS011;21465;52.278;20.962;2023-02-01T12:18:45;4.93;;;2.42;;
35366;SDS011;21465;52.278;20.962;2023-02-01T12:21:30;5.95;;;2.45;;
35366;SDS011;21465;52.278;20.962;2023-02-01T12:39:01;5.85;;;3.03;;
35366;SDS011;21465;52.278;20.962;2023-02-01T12:44:40;3.58;;;2.40;;
35366;SDS011;21465;52.278;20.962;2023-02-01T12:47:34;7.03;;;2.97;;
35366;SDS011;21465;52.278;20.962;2023-02-01T12:50:03;4.90;;;2.45;;
35366;SDS011;21465;52.278;20.962;2023-02-01T12:52:40;5.40;;;2.35;;
35366;SDS011;21465;52.278;20.962;2023-02-01T12:58:01;5.63;;;2.55;;
35366;SDS011;21465;52.278;20.962;2023-02-01T13:00:39;5.32;;;2.65;;
35366;SDS011;21465;52.278;20.962;2023-02-01T13:06:01;5.20;;;2.65;;
35366;SDS011;21465;52.278;20.962;2023-02-01T13:08:42;5.10;;;2.80;;
35366;SDS011;21465;52.278;20.962;2023-02-01T13:11:13;7.32;;;2.28;;
35366;SDS011;21465;52.278;20.962;2023-02-01T13:13:54;5.97;;;2.72;;
35366;SDS011;21465;52.278;20.962;2023-02-01T13:16:26;5.28;;;3.20;;
35366;SDS011;21465;52.278;20.962;2023-02-01T13:18:57;4.85;;;2.55;;
35366;SDS011;21465;52.278;20.962;2023-02-01T13:24:02;6.20;;;2.38;;
35366;SDS011;21465;52.278;20.962;2023-02-01T13:26:29;3.80;;;2.05;;
35366;SDS011;21465;52.278;20.962;2023-02-01T13:29:05;4.88;;;2.25;;
35366;SDS011;21465;52.278;20.962;2023-02-01T13:37:05;5.85;;;2.45;;
35366;SDS011;21465;52.278;20.962;2023-02-01T13:42:52;5.30;;;2.47;;
35366;SDS011;21465;52.278;20.962;2023-02-01T13:45:24;3.22;;;2.25;;
35366;SDS011;21465;52.278;20.962;2023-02-01T13:47:54;4.32;;;2.30;;
35366;SDS011;21465;52.278;20.962;2023-02-01T13:50:26;6.53;;;2.20;;
35366;SDS011;21465;52.278;20.962;2023-02-01T13:52:57;5.05;;;2.42;;
35366;SDS011;21465;52.278;20.962;2023-02-01T13:58:01;4.30;;;2.20;;
35366;SDS011;21465;52.278;20.962;2023-02-01T14:00:36;4.78;;;2.58;;
35366;SDS011;21465;52.278;20.962;2023-02-01T14:08:09;3.97;;;2.05;;
35366;SDS011;21465;52.278;20.962;2023-02-01T14:10:52;4.03;;;2.42;;
35366;SDS011;21465;52.278;20.962;2023-02-01T14:26:44;2.92;;;1.92;;
35366;SDS011;21465;52.278;20.962;2023-02-01T14:42:57;5.18;;;2.25;;
35366;SDS011;21465;52.278;20.962;2023-02-01T14:51:08;3.35;;;1.60;;
35366;SDS011;21465;52.278;20.962;2023-02-01T14:54:07;2.40;;;1.73;;
35366;SDS011;21465;52.278;20.962;2023-02-01T14:56:51;2.75;;;1.83;;
35366;SDS011;21465;52.278;20.962;2023-02-01T14:59:22;2.15;;;1.55;;
35366;SDS011;21465;52.278;20.962;2023-02-01T15:02:07;1.98;;;1.38;;
35366;SDS011;21465;52.278;20.962;2023-02-01T15:04:53;2.53;;;1.50;;
35366;SDS011;21465;52.278;20.962;2023-02-01T15:07:24;1.85;;;1.13;;
35366;SDS011;21465;52.278;20.962;2023-02-01T15:10:07;1.90;;;1.38;;
35366;SDS011;21465;52.278;20.962;2023-02-01T15:12:33;2.50;;;1.73;;
35366;SDS011;21465;52.278;20.962;2023-02-01T15:15:24;2.58;;;1.73;;
35366;SDS011;21465;52.278;20.962;2023-02-01T15:18:14;2.10;;;1.38;;
35366;SDS011;21465;52.278;20.962;2023-02-01T15:20:55;3.47;;;2.38;;
35366;SDS011;21465;52.278;20.962;2023-02-01T15:23:27;3.42;;;2.40;;
35366;SDS011;21465;52.278;20.962;2023-02-01T15:25:56;1.73;;;1.33;;
35366;SDS011;21465;52.278;20.962;2023-02-01T15:28:25;2.97;;;1.90;;
35366;SDS011;21465;52.278;20.962;2023-02-01T15:31:01;2.97;;;1.67;;
35366;SDS011;21465;52.278;20.962;2023-02-01T15:33:30;2.53;;;1.77;;
35366;SDS011;21465;52.278;20.962;2023-02-01T15:36:34;3.45;;;2.10;;
35366;SDS011;21465;52.278;20.962;2023-02-01T15:39:21;1.92;;;1.40;;
35366;SDS011;21465;52.278;20.962;2023-02-01T15:42:16;2.30;;;1.60;;
35366;SDS011;21465;52.278;20.962;2023-02-01T15:44:47;3.00;;;1.83;;
35366;SDS011;21465;52.278;20.962;2023-02-01T15:47:19;4.03;;;2.00;;
35366;SDS011;21465;52.278;20.962;2023-02-01T15:49:51;2.35;;;1.80;;
35366;SDS011;21465;52.278;20.962;2023-02-01T15:57:48;3.75;;;2.17;;
35366;SDS011;21465;52.278;20.962;2023-02-01T16:00:31;3.63;;;2.45;;
35366;SDS011;21465;52.278;20.962;2023-02-01T16:03:37;3.55;;;2.33;;
35366;SDS011;21465;52.278;20.962;2023-02-01T16:06:33;3.33;;;2.45;;
35366;SDS011;21465;52.278;20.962;2023-02-01T16:09:05;2.08;;;1.92;;
35366;SDS011;21465;52.278;20.962;2023-02-01T16:11:56;3.30;;;2.47;;
35366;SDS011;21465;52.278;20.962;2023-02-01T16:14:45;3.70;;;2.05;;
35366;SDS011;21465;52.278;20.962;2023-02-01T16:17:18;5.10;;;2.85;;
35366;SDS011;21465;52.278;20.962;2023-02-01T16:19:44;2.85;;;2.55;;
35366;SDS011;21465;52.278;20.962;2023-02-01T16:22:10;4.00;;;2.53;;
35366;SDS011;21465;52.278;20.962;2023-02-01T16:24:36;3.42;;;2.58;;
35366;SDS011;21465;52.278;20.962;2023-02-01T16:27:02;3.60;;;2.67;;
35366;SDS011;21465;52.278;20.962;2023-02-01T16:29:28;4.40;;;2.67;;
35366;SDS011;21465;52.278;20.962;2023-02-01T16:31:54;4.55;;;2.40;;
35366;SDS011;21465;52.278;20.962;2023-02-01T16:34:19;3.10;;;2.80;;
35366;SDS011;21465;52.278;20.962;2023-02-01T16:36:47;4.28;;;2.53;;
35366;SDS011;21465;52.278;20.962;2023-02-01T16:39:16;3.20;;;2.60;;
35366;SDS011;21465;52.278;20.962;2023-02-01T16:41:43;3.58;;;2.40;;
35366;SDS011;21465;52.278;20.962;2023-02-01T16:44:10;2.78;;;2.33;;
35366;SDS011;21465;52.278;20.962;2023-02-01T16:46:39;4.05;;;2.72;;
35366;SDS011;21465;52.278;20.962;2023-02-01T16:49:05;3.28;;;2.50;;
35366;SDS011;21465;52.278;20.962;2023-02-01T16:51:51;3.60;;;2.53;;
35366;SDS011;21465;52.278;20.962;2023-02-01T16:54:20;2.67;;;1.98;;
35366;SDS011;21465;52.278;20.962;2023-02-01T16:56:46;3.95;;;2.88;;
35366;SDS011;21465;52.278;20.962;2023-02-01T16:59:12;3.15;;;2.78;;
35366;SDS011;21465;52.278;20.962;2023-02-01T17:01:38;3.33;;;2.67;;
35366;SDS011;21465;52.278;20.962;2023-02-01T17:04:07;3.70;;;3.30;;
35366;SDS011;21465;52.278;20.962;2023-02-01T17:06:34;3.33;;;3.00;;
35366;SDS011;21465;52.278;20.962;2023-02-01T17:09:02;4.78;;;2.80;;
35366;SDS011;21465;52.278;20.962;2023-02-01T17:11:31;3.88;;;2.65;;
35366;SDS011;21465;52.278;20.962;2023-02-01T17:14:09;3.72;;;3.33;;
35366;SDS011;21465;52.278;20.962;2023-02-01T17:16:40;3.63;;;2.80;;
35366;SDS011;21465;52.278;20.962;2023-02-01T17:19:09;3.78;;;2.50;;
35366;SDS011;21465;52.278;20.962;2023-02-01T17:21:42;4.95;;;2.85;;
35366;SDS011;21465;52.278;20.962;2023-02-01T17:24:13;3.73;;;2.50;;
35366;SDS011;21465;52.278;20.962;2023-02-01T17:26:44;3.63;;;3.00;;
35366;SDS011;21465;52.278;20.962;2023-02-01T17:29:10;3.05;;;2.75;;
35366;SDS011;21465;52.278;20.962;2023-02-01T17:31:37;3.85;;;3.20;;
35366;SDS011;21465;52.278;20.962;2023-02-01T17:34:07;5.22;;;3.35;;
35366;SDS011;21465;52.278;20.962;2023-02-01T17:39:05;3.00;;;2.58;;
35366;SDS011;21465;52.278;20.962;2023-02-01T17:41:32;4.57;;;2.80;;
35366;SDS011;21465;52.278;20.962;2023-02-01T17:43:57;3.95;;;2.80;;
35366;SDS011;21465;52.278;20.962;2023-02-01T17:46:32;3.80;;;2.72;;